sensor_id;sensor_type;location;lat;lon;timestamp;temperature;humidity
13713;DHT22;6928;50.546;7.120;2023-04-09T00:00:09;8.98;85.00
13713;DHT22;6928;50.546;7.120;2023-04-09T00:02:36;8.88;85.03
13713;DHT22;6928;50.546;7.120;2023-04-09T00:05:05;8.85;84.76
13713;DHT22;6928;50.546;7.120;2023-04-09T00:07:35;8.92;84.79
13713;DHT22;6928;50.546;7.120;2023-04-09T00:10:07;8.96;84.35
13713;DHT22;6928;50.546;7.120;2023-04-09T00:12:34;8.85;84.61
13713;DHT22;6928;50.546;7.120;2023-04-09T00:15:02;8.85;85.00
13713;DHT22;6928;50.546;7.120;2023-04-09T00:17:30;8.84;84.96
13713;DHT22;6928;50.546;7.120;2023-04-09T00:19:57;8.88;84.79
13713;DHT22;6928;50.546;7.120;2023-04-09T00:22:25;8.89;84.48
13713;DHT22;6928;50.546;7.120;2023-04-09T00:24:56;8.87;84.38
13713;DHT22;6928;50.546;7.120;2023-04-09T00:27:23;8.72;84.98
13713;DHT22;6928;50.546;7.120;2023-04-09T00:29:52;8.82;84.68
13713;DHT22;6928;50.546;7.120;2023-04-09T00:32:21;8.79;84.64
13713;DHT22;6928;50.546;7.120;2023-04-09T00:34:47;8.67;85.25
13713;DHT22;6928;50.546;7.120;2023-04-09T00:37:14;8.69;85.16
13713;DHT22;6928;50.546;7.120;2023-04-09T00:39:42;8.78;84.94
13713;DHT22;6928;50.546;7.120;2023-04-09T00:42:09;8.81;84.70
13713;DHT22;6928;50.546;7.120;2023-04-09T00:44:36;8.73;84.64
13713;DHT22;6928;50.546;7.120;2023-04-09T00:47:03;8.69;84.91
13713;DHT22;6928;50.546;7.120;2023-04-09T00:49:30;8.76;84.71
13713;DHT22;6928;50.546;7.120;2023-04-09T00:51:57;8.82;84.51
13713;DHT22;6928;50.546;7.120;2023-04-09T00:54:24;8.81;84.47
13713;DHT22;6928;50.546;7.120;2023-04-09T00:56:52;8.75;84.76
13713;DHT22;6928;50.546;7.120;2023-04-09T00:59:28;8.76;84.55
13713;DHT22;6928;50.546;7.120;2023-04-09T01:01:55;8.73;84.61
13713;DHT22;6928;50.546;7.120;2023-04-09T01:04:23;8.62;84.77
13713;DHT22;6928;50.546;7.120;2023-04-09T01:07:00;8.62;84.82
13713;DHT22;6928;50.546;7.120;2023-04-09T01:09:34;8.61;85.04
13713;DHT22;6928;50.546;7.120;2023-04-09T01:12:11;8.58;85.26
13713;DHT22;6928;50.546;7.120;2023-04-09T01:14:47;8.64;85.02
13713;DHT22;6928;50.546;7.120;2023-04-09T01:17:20;8.55;85.18
13713;DHT22;6928;50.546;7.120;2023-04-09T01:20:06;8.54;85.25
13713;DHT22;6928;50.546;7.120;2023-04-09T01:22:52;8.52;85.80
13713;DHT22;6928;50.546;7.120;2023-04-09T01:25:42;8.61;85.84
13713;DHT22;6928;50.546;7.120;2023-04-09T01:28:18;8.65;85.08
13713;DHT22;6928;50.546;7.120;2023-04-09T01:30:51;8.60;85.18
13713;DHT22;6928;50.546;7.120;2023-04-09T01:33:19;8.57;85.14
13713;DHT22;6928;50.546;7.120;2023-04-09T01:35:48;8.64;85.15
13713;DHT22;6928;50.546;7.120;2023-04-09T01:38:19;8.52;85.63
13713;DHT22;6928;50.546;7.120;2023-04-09T01:40:50;8.62;85.26
13713;DHT22;6928;50.546;7.120;2023-04-09T01:43:20;8.60;85.55
13713;DHT22;6928;50.546;7.120;2023-04-09T01:45:47;8.54;85.57
13713;DHT22;6928;50.546;7.120;2023-04-09T01:48:15;8.45;86.20
13713;DHT22;6928;50.546;7.120;2023-04-09T01:50:43;8.64;85.79
13713;DHT22;6928;50.546;7.120;2023-04-09T01:53:10;8.67;85.76
13713;DHT22;6928;50.546;7.120;2023-04-09T01:55:36;8.67;85.76
13713;DHT22;6928;50.546;7.120;2023-04-09T01:58:03;8.50;86.37
13713;DHT22;6928;50.546;7.120;2023-04-09T02:00:37;8.40;86.08
13713;DHT22;6928;50.546;7.120;2023-04-09T02:03:07;8.58;85.65
13713;DHT22;6928;50.546;7.120;2023-04-09T02:05:40;8.44;86.53
13713;DHT22;6928;50.546;7.120;2023-04-09T02:08:12;8.44;86.40
13713;DHT22;6928;50.546;7.120;2023-04-09T02:10:42;8.34;86.81
13713;DHT22;6928;50.546;7.120;2023-04-09T02:13:15;8.38;86.76
13713;DHT22;6928;50.546;7.120;2023-04-09T02:15:45;8.42;86.34
13713;DHT22;6928;50.546;7.120;2023-04-09T02:18:23;8.40;86.11
13713;DHT22;6928;50.546;7.120;2023-04-09T02:20:52;8.47;85.99
13713;DHT22;6928;50.546;7.120;2023-04-09T02:23:19;8.38;86.06
13713;DHT22;6928;50.546;7.120;2023-04-09T02:25:49;8.47;85.69
13713;DHT22;6928;50.546;7.120;2023-04-09T02:28:16;8.42;85.61
13713;DHT22;6928;50.546;7.120;2023-04-09T02:30:44;8.50;85.61
13713;DHT22;6928;50.546;7.120;2023-04-09T02:33:10;8.40;85.81
13713;DHT22;6928;50.546;7.120;2023-04-09T02:35:37;8.38;86.21
13713;DHT22;6928;50.546;7.120;2023-04-09T02:38:04;8.34;86.10
13713;DHT22;6928;50.546;7.120;2023-04-09T02:40:32;8.29;86.31
13713;DHT22;6928;50.546;7.120;2023-04-09T02:42:59;8.40;86.11
13713;DHT22;6928;50.546;7.120;2023-04-09T02:45:26;8.36;85.91
13713;DHT22;6928;50.546;7.120;2023-04-09T02:47:54;8.31;86.03
13713;DHT22;6928;50.546;7.120;2023-04-09T02:50:21;8.31;86.14
13713;DHT22;6928;50.546;7.120;2023-04-09T02:52:47;8.33;86.05
13713;DHT22;6928;50.546;7.120;2023-04-09T02:55:15;8.33;86.28
13713;DHT22;6928;50.546;7.120;2023-04-09T02:57:42;8.23;86.37
13713;DHT22;6928;50.546;7.120;2023-04-09T03:00:10;8.24;86.65
13713;DHT22;6928;50.546;7.120;2023-04-09T03:02:37;8.26;86.95
13713;DHT22;6928;50.546;7.120;2023-04-09T03:05:06;8.23;86.93
13713;DHT22;6928;50.546;7.120;2023-04-09T03:07:33;8.33;86.85
13713;DHT22;6928;50.546;7.120;2023-04-09T03:10:00;8.26;86.85
13713;DHT22;6928;50.546;7.120;2023-04-09T03:12:27;8.26;86.78
13713;DHT22;6928;50.546;7.120;2023-04-09T03:14:54;8.29;86.97
13713;DHT22;6928;50.546;7.120;2023-04-09T03:17:20;8.27;87.00
13713;DHT22;6928;50.546;7.120;2023-04-09T03:19:50;8.31;86.90
13713;DHT22;6928;50.546;7.120;2023-04-09T03:22:18;8.24;87.13
13713;DHT22;6928;50.546;7.120;2023-04-09T03:24:44;8.19;87.61
13713;DHT22;6928;50.546;7.120;2023-04-09T03:27:12;7.96;88.39
13713;DHT22;6928;50.546;7.120;2023-04-09T03:29:39;8.16;87.62
13713;DHT22;6928;50.546;7.120;2023-04-09T03:32:06;8.14;87.66
13713;DHT22;6928;50.546;7.120;2023-04-09T03:34:33;8.14;87.43
13713;DHT22;6928;50.546;7.120;2023-04-09T03:37:00;8.17;87.51
13713;DHT22;6928;50.546;7.120;2023-04-09T03:39:29;8.12;87.63
13713;DHT22;6928;50.546;7.120;2023-04-09T03:41:56;8.17;87.53
13713;DHT22;6928;50.546;7.120;2023-04-09T03:44:24;7.99;87.91
13713;DHT22;6928;50.546;7.120;2023-04-09T03:46:50;8.14;87.82
13713;DHT22;6928;50.546;7.120;2023-04-09T03:49:17;7.99;88.10
13713;DHT22;6928;50.546;7.120;2023-04-09T03:51:44;8.06;88.04
13713;DHT22;6928;50.546;7.120;2023-04-09T03:54:11;7.99;87.51
13713;DHT22;6928;50.546;7.120;2023-04-09T03:56:41;7.98;87.74
13713;DHT22;6928;50.546;7.120;2023-04-09T03:59:08;8.00;87.42
13713;DHT22;6928;50.546;7.120;2023-04-09T04:01:35;8.00;87.53
13713;DHT22;6928;50.546;7.120;2023-04-09T04:04:02;7.95;87.60
13713;DHT22;6928;50.546;7.120;2023-04-09T04:06:32;7.99;87.68
13713;DHT22;6928;50.546;7.120;2023-04-09T04:08:59;7.95;87.37
13713;DHT22;6928;50.546;7.120;2023-04-09T04:11:27;7.96;87.81
13713;DHT22;6928;50.546;7.120;2023-04-09T04:13:56;8.03;87.31
13713;DHT22;6928;50.546;7.120;2023-04-09T04:16:23;8.00;87.08
13713;DHT22;6928;50.546;7.120;2023-04-09T04:18:50;7.77;87.98
13713;DHT22;6928;50.546;7.120;2023-04-09T04:21:17;7.82;88.27
13713;DHT22;6928;50.546;7.120;2023-04-09T04:23:43;7.90;87.53
13713;DHT22;6928;50.546;7.120;2023-04-09T04:26:11;7.89;87.47
13713;DHT22;6928;50.546;7.120;2023-04-09T04:28:38;7.93;87.19
13713;DHT22;6928;50.546;7.120;2023-04-09T04:31:08;7.90;87.32
13713;DHT22;6928;50.546;7.120;2023-04-09T04:33:36;7.82;87.78
13713;DHT22;6928;50.546;7.120;2023-04-09T04:36:04;7.54;88.97
13713;DHT22;6928;50.546;7.120;2023-04-09T04:38:32;7.66;88.50
13713;DHT22;6928;50.546;7.120;2023-04-09T04:40:58;7.54;88.73
13713;DHT22;6928;50.546;7.120;2023-04-09T04:43:25;7.55;89.08
13713;DHT22;6928;50.546;7.120;2023-04-09T04:45:52;7.71;88.30
13713;DHT22;6928;50.546;7.120;2023-04-09T04:48:20;7.69;88.05
13713;DHT22;6928;50.546;7.120;2023-04-09T04:50:54;7.65;88.11
13713;DHT22;6928;50.546;7.120;2023-04-09T04:53:21;7.50;88.63
13713;DHT22;6928;50.546;7.120;2023-04-09T04:55:48;7.55;88.39
13713;DHT22;6928;50.546;7.120;2023-04-09T04:58:15;7.52;88.34
13713;DHT22;6928;50.546;7.120;2023-04-09T05:00:42;7.52;88.46
13713;DHT22;6928;50.546;7.120;2023-04-09T05:03:08;7.44;88.80
13713;DHT22;6928;50.546;7.120;2023-04-09T05:05:37;7.48;89.21
13713;DHT22;6928;50.546;7.120;2023-04-09T05:08:04;7.45;88.87
13713;DHT22;6928;50.546;7.120;2023-04-09T05:10:31;7.47;88.62
13713;DHT22;6928;50.546;7.120;2023-04-09T05:12:57;7.44;88.68
13713;DHT22;6928;50.546;7.120;2023-04-09T05:15:24;7.44;88.71
13713;DHT22;6928;50.546;7.120;2023-04-09T05:17:51;7.44;88.88
13713;DHT22;6928;50.546;7.120;2023-04-09T05:20:18;7.47;88.54
13713;DHT22;6928;50.546;7.120;2023-04-09T05:22:47;7.42;88.69
13713;DHT22;6928;50.546;7.120;2023-04-09T05:25:13;7.56;88.62
13713;DHT22;6928;50.546;7.120;2023-04-09T05:27:41;7.55;88.39
13713;DHT22;6928;50.546;7.120;2023-04-09T05:30:09;7.54;88.38
13713;DHT22;6928;50.546;7.120;2023-04-09T05:32:36;7.48;88.61
13713;DHT22;6928;50.546;7.120;2023-04-09T05:35:04;7.52;88.52
13713;DHT22;6928;50.546;7.120;2023-04-09T05:37:31;7.37;89.46
13713;DHT22;6928;50.546;7.120;2023-04-09T05:40:01;7.51;88.79
13713;DHT22;6928;50.546;7.120;2023-04-09T05:42:28;7.55;88.59
13713;DHT22;6928;50.546;7.120;2023-04-09T05:44:55;7.52;88.67
13713;DHT22;6928;50.546;7.120;2023-04-09T05:47:22;7.56;88.44
13713;DHT22;6928;50.546;7.120;2023-04-09T05:49:49;7.56;88.61
13713;DHT22;6928;50.546;7.120;2023-04-09T05:52:16;7.50;88.70
13713;DHT22;6928;50.546;7.120;2023-04-09T05:54:43;7.51;88.64
13713;DHT22;6928;50.546;7.120;2023-04-09T05:57:12;7.61;88.61
13713;DHT22;6928;50.546;7.120;2023-04-09T05:59:38;7.65;88.33
13713;DHT22;6928;50.546;7.120;2023-04-09T06:02:05;7.66;88.22
13713;DHT22;6928;50.546;7.120;2023-04-09T06:04:32;7.34;89.53
13713;DHT22;6928;50.546;7.120;2023-04-09T06:06:59;7.48;89.61
13713;DHT22;6928;50.546;7.120;2023-04-09T06:09:25;7.63;88.80
13713;DHT22;6928;50.546;7.120;2023-04-09T06:11:52;7.74;88.41
13713;DHT22;6928;50.546;7.120;2023-04-09T06:14:20;7.63;89.03
13713;DHT22;6928;50.546;7.120;2023-04-09T06:16:47;7.68;88.60
13713;DHT22;6928;50.546;7.120;2023-04-09T06:19:15;7.71;88.80
13713;DHT22;6928;50.546;7.120;2023-04-09T06:21:42;7.88;88.27
13713;DHT22;6928;50.546;7.120;2023-04-09T06:24:08;7.81;88.66
13713;DHT22;6928;50.546;7.120;2023-04-09T06:26:35;7.95;88.19
13713;DHT22;6928;50.546;7.120;2023-04-09T06:29:02;7.93;87.94
13713;DHT22;6928;50.546;7.120;2023-04-09T06:31:30;7.78;88.40
13713;DHT22;6928;50.546;7.120;2023-04-09T06:33:57;8.09;88.24
13713;DHT22;6928;50.546;7.120;2023-04-09T06:36:25;8.50;86.64
13713;DHT22;6928;50.546;7.120;2023-04-09T06:38:52;8.52;86.05
13713;DHT22;6928;50.546;7.120;2023-04-09T06:41:20;8.82;85.03
13713;DHT22;6928;50.546;7.120;2023-04-09T06:43:47;8.95;84.89
13713;DHT22;6928;50.546;7.120;2023-04-09T06:46:14;9.12;84.39
13713;DHT22;6928;50.546;7.120;2023-04-09T06:48:44;9.16;82.45
13713;DHT22;6928;50.546;7.120;2023-04-09T06:51:11;9.46;82.00
13713;DHT22;6928;50.546;7.120;2023-04-09T06:53:39;9.62;81.22
13713;DHT22;6928;50.546;7.120;2023-04-09T06:56:06;9.68;80.03
13713;DHT22;6928;50.546;7.120;2023-04-09T06:58:33;9.74;79.28
13713;DHT22;6928;50.546;7.120;2023-04-09T07:00:59;9.81;78.18
13713;DHT22;6928;50.546;7.120;2023-04-09T07:03:26;10.01;78.39
13713;DHT22;6928;50.546;7.120;2023-04-09T07:05:55;10.05;77.10
13713;DHT22;6928;50.546;7.120;2023-04-09T07:08:23;10.34;76.41
13713;DHT22;6928;50.546;7.120;2023-04-09T07:10:50;10.16;74.90
13713;DHT22;6928;50.546;7.120;2023-04-09T07:13:17;10.26;74.02
13713;DHT22;6928;50.546;7.120;2023-04-09T07:15:43;10.26;72.99
13713;DHT22;6928;50.546;7.120;2023-04-09T07:18:10;10.49;72.94
13713;DHT22;6928;50.546;7.120;2023-04-09T07:20:37;10.53;72.26
13713;DHT22;6928;50.546;7.120;2023-04-09T07:23:05;10.53;71.53
13713;DHT22;6928;50.546;7.120;2023-04-09T07:25:31;10.57;69.62
13713;DHT22;6928;50.546;7.120;2023-04-09T07:27:58;10.81;69.19
13713;DHT22;6928;50.546;7.120;2023-04-09T07:30:25;10.77;68.31
13713;DHT22;6928;50.546;7.120;2023-04-09T07:32:52;11.05;68.03
13713;DHT22;6928;50.546;7.120;2023-04-09T07:35:19;11.16;67.07
13713;DHT22;6928;50.546;7.120;2023-04-09T07:37:46;11.07;66.78
13713;DHT22;6928;50.546;7.120;2023-04-09T07:40:14;10.99;65.33
13713;DHT22;6928;50.546;7.120;2023-04-09T07:42:40;10.88;65.55
13713;DHT22;6928;50.546;7.120;2023-04-09T07:45:08;11.19;65.70
13713;DHT22;6928;50.546;7.120;2023-04-09T07:47:35;11.02;64.51
13713;DHT22;6928;50.546;7.120;2023-04-09T07:50:03;10.95;65.04
13713;DHT22;6928;50.546;7.120;2023-04-09T07:52:29;11.18;65.12
13713;DHT22;6928;50.546;7.120;2023-04-09T07:54:56;11.40;64.81
13713;DHT22;6928;50.546;7.120;2023-04-09T07:57:24;11.19;65.05
13713;DHT22;6928;50.546;7.120;2023-04-09T07:59:52;11.23;64.01
13713;DHT22;6928;50.546;7.120;2023-04-09T08:02:19;11.42;63.95
13713;DHT22;6928;50.546;7.120;2023-04-09T08:04:47;11.35;63.27
13713;DHT22;6928;50.546;7.120;2023-04-09T08:07:14;11.69;63.03
13713;DHT22;6928;50.546;7.120;2023-04-09T08:09:40;11.50;62.85
13713;DHT22;6928;50.546;7.120;2023-04-09T08:12:07;11.63;63.18
13713;DHT22;6928;50.546;7.120;2023-04-09T08:14:35;11.57;63.90
13713;DHT22;6928;50.546;7.120;2023-04-09T08:17:03;11.50;64.33
13713;DHT22;6928;50.546;7.120;2023-04-09T08:19:30;11.67;64.29
13713;DHT22;6928;50.546;7.120;2023-04-09T08:22:00;11.81;64.13
13713;DHT22;6928;50.546;7.120;2023-04-09T08:24:27;11.59;63.61
13713;DHT22;6928;50.546;7.120;2023-04-09T08:26:54;11.83;62.70
13713;DHT22;6928;50.546;7.120;2023-04-09T08:29:21;12.11;61.87
13713;DHT22;6928;50.546;7.120;2023-04-09T08:31:49;11.80;61.75
13713;DHT22;6928;50.546;7.120;2023-04-09T08:34:15;11.78;63.79
13713;DHT22;6928;50.546;7.120;2023-04-09T08:36:45;12.31;61.54
13713;DHT22;6928;50.546;7.120;2023-04-09T08:39:15;12.29;61.52
13713;DHT22;6928;50.546;7.120;2023-04-09T08:41:43;12.20;61.15
13713;DHT22;6928;50.546;7.120;2023-04-09T08:44:10;12.29;61.98
13713;DHT22;6928;50.546;7.120;2023-04-09T08:46:37;12.60;60.33
13713;DHT22;6928;50.546;7.120;2023-04-09T08:49:07;12.18;59.47
13713;DHT22;6928;50.546;7.120;2023-04-09T08:51:34;12.63;59.29
13713;DHT22;6928;50.546;7.120;2023-04-09T08:54:01;12.38;59.71
13713;DHT22;6928;50.546;7.120;2023-04-09T08:56:28;12.41;60.88
13713;DHT22;6928;50.546;7.120;2023-04-09T08:58:55;12.79;59.32
13713;DHT22;6928;50.546;7.120;2023-04-09T09:01:24;11.86;59.90
13713;DHT22;6928;50.546;7.120;2023-04-09T09:03:57;12.13;60.93
13713;DHT22;6928;50.546;7.120;2023-04-09T09:06:28;12.31;60.27
13713;DHT22;6928;50.546;7.120;2023-04-09T09:09:05;12.04;61.50
13713;DHT22;6928;50.546;7.120;2023-04-09T09:11:33;12.15;61.74
13713;DHT22;6928;50.546;7.120;2023-04-09T09:14:02;12.63;59.39
13713;DHT22;6928;50.546;7.120;2023-04-09T09:16:29;12.70;59.39
13713;DHT22;6928;50.546;7.120;2023-04-09T09:18:57;12.13;59.66
13713;DHT22;6928;50.546;7.120;2023-04-09T09:21:27;12.42;57.75
13713;DHT22;6928;50.546;7.120;2023-04-09T09:23:55;13.10;59.08
13713;DHT22;6928;50.546;7.120;2023-04-09T09:26:25;12.76;59.48
13713;DHT22;6928;50.546;7.120;2023-04-09T09:28:52;12.66;59.61
13713;DHT22;6928;50.546;7.120;2023-04-09T09:31:21;12.31;59.35
13713;DHT22;6928;50.546;7.120;2023-04-09T09:33:48;11.80;60.60
13713;DHT22;6928;50.546;7.120;2023-04-09T09:36:31;11.97;60.85
13713;DHT22;6928;50.546;7.120;2023-04-09T09:38:59;11.95;61.86
13713;DHT22;6928;50.546;7.120;2023-04-09T09:41:28;12.35;60.58
13713;DHT22;6928;50.546;7.120;2023-04-09T09:43:55;12.56;60.83
13713;DHT22;6928;50.546;7.120;2023-04-09T09:46:24;12.55;60.73
13713;DHT22;6928;50.546;7.120;2023-04-09T09:48:52;13.24;59.66
13713;DHT22;6928;50.546;7.120;2023-04-09T09:51:24;13.20;59.13
13713;DHT22;6928;50.546;7.120;2023-04-09T09:53:55;13.02;58.58
13713;DHT22;6928;50.546;7.120;2023-04-09T09:56:24;13.20;59.53
13713;DHT22;6928;50.546;7.120;2023-04-09T09:59:05;12.53;59.19
13713;DHT22;6928;50.546;7.120;2023-04-09T10:01:32;12.92;59.16
13713;DHT22;6928;50.546;7.120;2023-04-09T10:04:00;12.86;58.24
13713;DHT22;6928;50.546;7.120;2023-04-09T10:06:28;12.65;58.72
13713;DHT22;6928;50.546;7.120;2023-04-09T10:09:02;13.06;58.50
13713;DHT22;6928;50.546;7.120;2023-04-09T10:11:30;13.18;57.27
13713;DHT22;6928;50.546;7.120;2023-04-09T10:13:58;13.63;56.48
13713;DHT22;6928;50.546;7.120;2023-04-09T10:16:25;13.78;56.02
13713;DHT22;6928;50.546;7.120;2023-04-09T10:18:53;13.27;57.26
13713;DHT22;6928;50.546;7.120;2023-04-09T10:21:30;12.86;56.89
13713;DHT22;6928;50.546;7.120;2023-04-09T10:24:00;12.94;57.37
13713;DHT22;6928;50.546;7.120;2023-04-09T10:26:32;12.60;58.87
13713;DHT22;6928;50.546;7.120;2023-04-09T10:29:07;12.22;60.34
13713;DHT22;6928;50.546;7.120;2023-04-09T10:31:51;12.67;60.46
13713;DHT22;6928;50.546;7.120;2023-04-09T10:34:21;12.81;59.73
13713;DHT22;6928;50.546;7.120;2023-04-09T10:36:52;12.97;58.14
13713;DHT22;6928;50.546;7.120;2023-04-09T10:39:21;13.07;58.61
13713;DHT22;6928;50.546;7.120;2023-04-09T10:41:52;13.31;58.00
13713;DHT22;6928;50.546;7.120;2023-04-09T10:44:21;12.92;58.11
13713;DHT22;6928;50.546;7.120;2023-04-09T10:46:48;12.81;58.66
13713;DHT22;6928;50.546;7.120;2023-04-09T10:49:18;13.00;58.94
13713;DHT22;6928;50.546;7.120;2023-04-09T10:51:51;13.25;59.47
13713;DHT22;6928;50.546;7.120;2023-04-09T10:54:44;13.39;58.78
13713;DHT22;6928;50.546;7.120;2023-04-09T10:57:13;13.10;58.50
13713;DHT22;6928;50.546;7.120;2023-04-09T10:59:42;13.56;57.63
13713;DHT22;6928;50.546;7.120;2023-04-09T11:05:21;12.84;57.44
13713;DHT22;6928;50.546;7.120;2023-04-09T11:07:53;13.31;57.56
13713;DHT22;6928;50.546;7.120;2023-04-09T11:10:22;13.72;57.62
13713;DHT22;6928;50.546;7.120;2023-04-09T11:12:49;13.67;56.99
13713;DHT22;6928;50.546;7.120;2023-04-09T11:15:16;13.24;57.72
13713;DHT22;6928;50.546;7.120;2023-04-09T11:17:43;13.55;57.24
13713;DHT22;6928;50.546;7.120;2023-04-09T11:20:10;13.96;56.71
13713;DHT22;6928;50.546;7.120;2023-04-09T11:22:37;13.51;56.56
13713;DHT22;6928;50.546;7.120;2023-04-09T11:25:05;13.54;55.21
13713;DHT22;6928;50.546;7.120;2023-04-09T11:27:37;13.04;56.62
13713;DHT22;6928;50.546;7.120;2023-04-09T11:30:06;13.32;56.74
13713;DHT22;6928;50.546;7.120;2023-04-09T11:32:33;13.23;57.40
13713;DHT22;6928;50.546;7.120;2023-04-09T11:34:59;13.36;57.21
13713;DHT22;6928;50.546;7.120;2023-04-09T11:37:26;13.55;56.17
13713;DHT22;6928;50.546;7.120;2023-04-09T11:39:53;13.13;56.14
13713;DHT22;6928;50.546;7.120;2023-04-09T11:42:21;13.00;56.24
13713;DHT22;6928;50.546;7.120;2023-04-09T11:44:51;13.27;56.05
13713;DHT22;6928;50.546;7.120;2023-04-09T11:47:18;13.63;56.23
13713;DHT22;6928;50.546;7.120;2023-04-09T11:49:46;13.61;55.69
13713;DHT22;6928;50.546;7.120;2023-04-09T11:52:13;13.24;56.54
13713;DHT22;6928;50.546;7.120;2023-04-09T11:54:41;13.54;56.20
13713;DHT22;6928;50.546;7.120;2023-04-09T11:57:07;13.41;55.15
13713;DHT22;6928;50.546;7.120;2023-04-09T11:59:37;13.36;55.09
13713;DHT22;6928;50.546;7.120;2023-04-09T12:02:06;13.34;53.92
13713;DHT22;6928;50.546;7.120;2023-04-09T12:04:33;14.25;53.23
13713;DHT22;6928;50.546;7.120;2023-04-09T12:07:00;13.82;53.35
13713;DHT22;6928;50.546;7.120;2023-04-09T12:09:27;13.96;54.01
13713;DHT22;6928;50.546;7.120;2023-04-09T12:11:53;14.14;54.25
13713;DHT22;6928;50.546;7.120;2023-04-09T12:14:21;14.44;52.84
13713;DHT22;6928;50.546;7.120;2023-04-09T12:16:50;14.38;51.84
13713;DHT22;6928;50.546;7.120;2023-04-09T12:19:19;14.69;51.15
13713;DHT22;6928;50.546;7.120;2023-04-09T12:21:48;15.24;51.97
13713;DHT22;6928;50.546;7.120;2023-04-09T12:24:17;14.89;51.96
13713;DHT22;6928;50.546;7.120;2023-04-09T12:26:44;14.62;51.46
13713;DHT22;6928;50.546;7.120;2023-04-09T12:29:13;14.23;53.23
13713;DHT22;6928;50.546;7.120;2023-04-09T12:31:40;14.74;52.32
13713;DHT22;6928;50.546;7.120;2023-04-09T12:34:07;14.96;52.22
13713;DHT22;6928;50.546;7.120;2023-04-09T12:36:36;14.48;49.52
13713;DHT22;6928;50.546;7.120;2023-04-09T12:39:03;14.88;48.93
13713;DHT22;6928;50.546;7.120;2023-04-09T12:41:30;15.10;48.79
13713;DHT22;6928;50.546;7.120;2023-04-09T12:43:56;14.76;49.32
13713;DHT22;6928;50.546;7.120;2023-04-09T12:46:23;15.00;50.01
13713;DHT22;6928;50.546;7.120;2023-04-09T12:48:50;14.72;50.02
13713;DHT22;6928;50.546;7.120;2023-04-09T12:51:17;14.44;50.49
13713;DHT22;6928;50.546;7.120;2023-04-09T12:53:45;14.34;50.11
13713;DHT22;6928;50.546;7.120;2023-04-09T12:56:12;15.00;50.78
13713;DHT22;6928;50.546;7.120;2023-04-09T12:58:39;14.76;50.76
13713;DHT22;6928;50.546;7.120;2023-04-09T13:01:06;14.34;51.41
13713;DHT22;6928;50.546;7.120;2023-04-09T13:03:33;14.35;51.28
13713;DHT22;6928;50.546;7.120;2023-04-09T13:05:59;14.33;51.41
13713;DHT22;6928;50.546;7.120;2023-04-09T13:08:26;14.27;51.51
13713;DHT22;6928;50.546;7.120;2023-04-09T13:10:54;14.53;52.05
13713;DHT22;6928;50.546;7.120;2023-04-09T13:13:21;14.34;51.73
13713;DHT22;6928;50.546;7.120;2023-04-09T13:15:49;14.41;51.22
13713;DHT22;6928;50.546;7.120;2023-04-09T13:18:16;14.06;51.37
13713;DHT22;6928;50.546;7.120;2023-04-09T13:20:43;14.35;51.28
13713;DHT22;6928;50.546;7.120;2023-04-09T13:23:10;14.20;52.50
13713;DHT22;6928;50.546;7.120;2023-04-09T13:25:36;14.53;51.58
13713;DHT22;6928;50.546;7.120;2023-04-09T13:28:06;14.16;51.43
13713;DHT22;6928;50.546;7.120;2023-04-09T13:30:32;14.30;51.25
13713;DHT22;6928;50.546;7.120;2023-04-09T13:32:59;13.87;50.79
13713;DHT22;6928;50.546;7.120;2023-04-09T13:35:26;14.18;51.12
13713;DHT22;6928;50.546;7.120;2023-04-09T13:37:53;14.14;50.59
13713;DHT22;6928;50.546;7.120;2023-04-09T13:40:20;14.34;50.75
13713;DHT22;6928;50.546;7.120;2023-04-09T13:42:47;14.20;50.56
13713;DHT22;6928;50.546;7.120;2023-04-09T13:45:15;14.30;50.70
13713;DHT22;6928;50.546;7.120;2023-04-09T13:47:45;14.10;51.48
13713;DHT22;6928;50.546;7.120;2023-04-09T13:50:12;14.12;51.54
13713;DHT22;6928;50.546;7.120;2023-04-09T13:52:38;14.04;51.51
13713;DHT22;6928;50.546;7.120;2023-04-09T13:55:07;14.33;51.49
13713;DHT22;6928;50.546;7.120;2023-04-09T13:57:34;14.13;50.29
13713;DHT22;6928;50.546;7.120;2023-04-09T14:00:01;14.17;51.70
13713;DHT22;6928;50.546;7.120;2023-04-09T14:02:31;14.24;51.88
13713;DHT22;6928;50.546;7.120;2023-04-09T14:04:57;13.99;51.06
13713;DHT22;6928;50.546;7.120;2023-04-09T14:07:24;14.40;51.10
13713;DHT22;6928;50.546;7.120;2023-04-09T14:09:51;14.40;51.05
13713;DHT22;6928;50.546;7.120;2023-04-09T14:12:18;14.50;51.30
13713;DHT22;6928;50.546;7.120;2023-04-09T14:14:44;14.61;50.65
13713;DHT22;6928;50.546;7.120;2023-04-09T14:17:11;14.20;49.99
13713;DHT22;6928;50.546;7.120;2023-04-09T14:19:39;14.06;50.50
13713;DHT22;6928;50.546;7.120;2023-04-09T14:22:06;14.14;50.50
13713;DHT22;6928;50.546;7.120;2023-04-09T14:24:33;14.20;50.90
13713;DHT22;6928;50.546;7.120;2023-04-09T14:27:04;14.13;51.20
13713;DHT22;6928;50.546;7.120;2023-04-09T14:29:32;14.31;51.47
13713;DHT22;6928;50.546;7.120;2023-04-09T14:31:58;14.33;50.65
13713;DHT22;6928;50.546;7.120;2023-04-09T14:34:25;14.10;50.87
13713;DHT22;6928;50.546;7.120;2023-04-09T14:36:53;14.27;49.73
13713;DHT22;6928;50.546;7.120;2023-04-09T14:39:20;14.38;49.37
13713;DHT22;6928;50.546;7.120;2023-04-09T14:41:46;14.21;49.93
13713;DHT22;6928;50.546;7.120;2023-04-09T14:44:13;14.28;49.80
13713;DHT22;6928;50.546;7.120;2023-04-09T14:46:41;14.47;49.74
13713;DHT22;6928;50.546;7.120;2023-04-09T14:49:09;14.13;49.84
13713;DHT22;6928;50.546;7.120;2023-04-09T14:51:38;14.12;50.12
13713;DHT22;6928;50.546;7.120;2023-04-09T14:54:11;14.00;50.49
13713;DHT22;6928;50.546;7.120;2023-04-09T14:56:39;14.28;50.22
13713;DHT22;6928;50.546;7.120;2023-04-09T14:59:06;14.23;49.74
13713;DHT22;6928;50.546;7.120;2023-04-09T15:01:32;14.25;49.13
13713;DHT22;6928;50.546;7.120;2023-04-09T15:03:59;14.21;49.57
13713;DHT22;6928;50.546;7.120;2023-04-09T15:06:26;14.31;50.03
13713;DHT22;6928;50.546;7.120;2023-04-09T15:08:54;14.16;49.36
13713;DHT22;6928;50.546;7.120;2023-04-09T15:11:24;14.07;49.75
13713;DHT22;6928;50.546;7.120;2023-04-09T15:13:52;13.92;49.80
13713;DHT22;6928;50.546;7.120;2023-04-09T15:16:24;14.07;49.57
13713;DHT22;6928;50.546;7.120;2023-04-09T15:18:52;14.03;49.05
13713;DHT22;6928;50.546;7.120;2023-04-09T15:21:20;14.25;48.86
13713;DHT22;6928;50.546;7.120;2023-04-09T15:23:49;14.35;49.50
13713;DHT22;6928;50.546;7.120;2023-04-09T15:26:16;14.53;48.78
13713;DHT22;6928;50.546;7.120;2023-04-09T15:28:44;14.45;48.37
13713;DHT22;6928;50.546;7.120;2023-04-09T15:31:12;14.18;49.60
13713;DHT22;6928;50.546;7.120;2023-04-09T15:33:41;14.18;49.50
13713;DHT22;6928;50.546;7.120;2023-04-09T15:36:08;14.41;48.84
13713;DHT22;6928;50.546;7.120;2023-04-09T15:38:35;14.51;48.45
13713;DHT22;6928;50.546;7.120;2023-04-09T15:41:01;14.61;49.39
13713;DHT22;6928;50.546;7.120;2023-04-09T15:43:29;14.21;49.59
13713;DHT22;6928;50.546;7.120;2023-04-09T15:45:57;14.42;49.05
13713;DHT22;6928;50.546;7.120;2023-04-09T15:48:24;14.37;47.89
13713;DHT22;6928;50.546;7.120;2023-04-09T15:50:50;14.24;47.90
13713;DHT22;6928;50.546;7.120;2023-04-09T15:53:17;14.25;47.99
13713;DHT22;6928;50.546;7.120;2023-04-09T15:55:48;14.31;48.84
13713;DHT22;6928;50.546;7.120;2023-04-09T15:58:14;14.50;48.70
13713;DHT22;6928;50.546;7.120;2023-04-09T16:00:41;14.31;49.08